sensor_id;sensor_type;location;lat;lon;timestamp;temperature;humidity
10042;DHT22;5061;49.068;12.058;2023-02-24T00:02:02;7.40;99.90
10042;DHT22;5061;49.068;12.058;2023-02-24T00:05:24;7.30;99.90
10042;DHT22;5061;49.068;12.058;2023-02-24T00:08:45;7.30;99.90
10042;DHT22;5061;49.068;12.058;2023-02-24T00:12:09;7.40;99.90
10042;DHT22;5061;49.068;12.058;2023-02-24T00:15:30;7.30;99.90
10042;DHT22;5061;49.068;12.058;2023-02-24T00:18:51;7.30;99.90
10042;DHT22;5061;49.068;12.058;2023-02-24T00:22:12;7.30;99.90
10042;DHT22;5061;49.068;12.058;2023-02-24T00:25:32;7.30;99.90
10042;DHT22;5061;49.068;12.058;2023-02-24T00:28:53;7.40;99.90
10042;DHT22;5061;49.068;12.058;2023-02-24T00:32:13;7.40;99.90
10042;DHT22;5061;49.068;12.058;2023-02-24T00:35:34;7.40;99.90
10042;DHT22;5061;49.068;12.058;2023-02-24T00:38:57;7.40;99.90
10042;DHT22;5061;49.068;12.058;2023-02-24T00:42:18;7.40;99.90
10042;DHT22;5061;49.068;12.058;2023-02-24T00:45:39;7.40;99.90
10042;DHT22;5061;49.068;12.058;2023-02-24T00:49:01;7.40;99.90
10042;DHT22;5061;49.068;12.058;2023-02-24T00:52:24;7.40;99.90
10042;DHT22;5061;49.068;12.058;2023-02-24T00:55:47;7.40;99.90
10042;DHT22;5061;49.068;12.058;2023-02-24T00:59:09;7.40;99.90
10042;DHT22;5061;49.068;12.058;2023-02-24T01:02:30;7.40;99.90
10042;DHT22;5061;49.068;12.058;2023-02-24T01:05:51;7.30;99.90
10042;DHT22;5061;49.068;12.058;2023-02-24T01:09:14;7.30;99.90
10042;DHT22;5061;49.068;12.058;2023-02-24T01:12:35;7.30;99.90
10042;DHT22;5061;49.068;12.058;2023-02-24T01:16:08;7.30;99.90
10042;DHT22;5061;49.068;12.058;2023-02-24T01:19:31;7.30;99.90
10042;DHT22;5061;49.068;12.058;2023-02-24T01:22:52;7.30;99.90
10042;DHT22;5061;49.068;12.058;2023-02-24T01:26:13;7.40;99.90
10042;DHT22;5061;49.068;12.058;2023-02-24T01:29:35;7.30;99.90
10042;DHT22;5061;49.068;12.058;2023-02-24T01:32:58;7.40;99.90
10042;DHT22;5061;49.068;12.058;2023-02-24T01:36:22;7.40;99.90
10042;DHT22;5061;49.068;12.058;2023-02-24T01:39:43;7.30;99.90
10042;DHT22;5061;49.068;12.058;2023-02-24T01:43:05;7.30;99.90
10042;DHT22;5061;49.068;12.058;2023-02-24T01:46:37;7.20;99.90
10042;DHT22;5061;49.068;12.058;2023-02-24T01:49:58;7.20;99.90
10042;DHT22;5061;49.068;12.058;2023-02-24T01:53:19;7.20;99.90
10042;DHT22;5061;49.068;12.058;2023-02-24T01:56:40;7.20;99.90
10042;DHT22;5061;49.068;12.058;2023-02-24T02:00:05;7.20;99.90
10042;DHT22;5061;49.068;12.058;2023-02-24T02:03:33;7.20;99.90
10042;DHT22;5061;49.068;12.058;2023-02-24T02:06:54;7.20;99.90
10042;DHT22;5061;49.068;12.058;2023-02-24T02:10:15;7.20;99.90
10042;DHT22;5061;49.068;12.058;2023-02-24T02:13:41;7.20;99.90
10042;DHT22;5061;49.068;12.058;2023-02-24T02:25:15;7.30;99.90
10042;DHT22;5061;49.068;12.058;2023-02-24T02:36:40;7.10;99.90
10042;DHT22;5061;49.068;12.058;2023-02-24T02:47:36;7.10;99.90
10042;DHT22;5061;49.068;12.058;2023-02-24T02:51:09;7.10;99.90
10042;DHT22;5061;49.068;12.058;2023-02-24T02:54:50;7.10;99.90
10042;DHT22;5061;49.068;12.058;2023-02-24T02:58:18;7.10;99.90
10042;DHT22;5061;49.068;12.058;2023-02-24T03:01:40;7.10;99.90
10042;DHT22;5061;49.068;12.058;2023-02-24T03:05:04;7.10;99.90
10042;DHT22;5061;49.068;12.058;2023-02-24T03:08:30;7.10;99.90
10042;DHT22;5061;49.068;12.058;2023-02-24T03:11:57;7.10;99.90
10042;DHT22;5061;49.068;12.058;2023-02-24T03:15:21;7.00;99.90
10042;DHT22;5061;49.068;12.058;2023-02-24T03:18:49;7.00;99.90
10042;DHT22;5061;49.068;12.058;2023-02-24T03:22:18;7.00;99.90
10042;DHT22;5061;49.068;12.058;2023-02-24T03:25:55;7.00;99.90
10042;DHT22;5061;49.068;12.058;2023-02-24T03:29:33;7.00;99.90
10042;DHT22;5061;49.068;12.058;2023-02-24T03:33:35;7.00;99.90
10042;DHT22;5061;49.068;12.058;2023-02-24T03:36:58;7.00;99.90
10042;DHT22;5061;49.068;12.058;2023-02-24T03:40:18;7.00;99.90
10042;DHT22;5061;49.068;12.058;2023-02-24T03:43:44;7.00;99.90
10042;DHT22;5061;49.068;12.058;2023-02-24T03:47:05;6.90;99.90
10042;DHT22;5061;49.068;12.058;2023-02-24T03:50:29;7.00;99.90
10042;DHT22;5061;49.068;12.058;2023-02-24T04:01:55;6.90;99.90
10042;DHT22;5061;49.068;12.058;2023-02-24T04:05:19;6.90;99.90
10042;DHT22;5061;49.068;12.058;2023-02-24T04:12:41;6.90;99.90
10042;DHT22;5061;49.068;12.058;2023-02-24T04:16:18;7.00;99.90
10042;DHT22;5061;49.068;12.058;2023-02-24T04:19:49;7.00;99.90
10042;DHT22;5061;49.068;12.058;2023-02-24T04:23:14;7.00;99.90
10042;DHT22;5061;49.068;12.058;2023-02-24T04:26:36;7.00;99.90
10042;DHT22;5061;49.068;12.058;2023-02-24T04:30:01;7.00;99.90
10042;DHT22;5061;49.068;12.058;2023-02-24T04:33:24;7.00;99.90
10042;DHT22;5061;49.068;12.058;2023-02-24T04:36:46;7.00;99.90
10042;DHT22;5061;49.068;12.058;2023-02-24T04:40:12;7.00;99.90
10042;DHT22;5061;49.068;12.058;2023-02-24T04:43:36;6.90;99.90
10042;DHT22;5061;49.068;12.058;2023-02-24T04:46:58;6.90;99.90
10042;DHT22;5061;49.068;12.058;2023-02-24T04:50:22;6.90;99.90
10042;DHT22;5061;49.068;12.058;2023-02-24T04:53:43;7.00;99.90
10042;DHT22;5061;49.068;12.058;2023-02-24T04:57:03;6.90;99.90
10042;DHT22;5061;49.068;12.058;2023-02-24T05:00:30;6.90;99.90
10042;DHT22;5061;49.068;12.058;2023-02-24T05:03:55;6.90;99.90
10042;DHT22;5061;49.068;12.058;2023-02-24T05:07:15;6.90;99.90
10042;DHT22;5061;49.068;12.058;2023-02-24T05:10:42;6.90;99.90
10042;DHT22;5061;49.068;12.058;2023-02-24T05:14:05;6.90;99.90
10042;DHT22;5061;49.068;12.058;2023-02-24T05:17:27;6.90;99.90
10042;DHT22;5061;49.068;12.058;2023-02-24T05:20:50;6.80;99.90
10042;DHT22;5061;49.068;12.058;2023-02-24T05:24:31;6.90;99.90
10042;DHT22;5061;49.068;12.058;2023-02-24T05:27:52;6.90;99.90
10042;DHT22;5061;49.068;12.058;2023-02-24T05:31:15;6.90;99.90
10042;DHT22;5061;49.068;12.058;2023-02-24T05:34:37;6.90;99.90
10042;DHT22;5061;49.068;12.058;2023-02-24T05:37:58;6.80;99.90
10042;DHT22;5061;49.068;12.058;2023-02-24T05:41:18;6.90;99.90
10042;DHT22;5061;49.068;12.058;2023-02-24T05:44:39;6.80;99.90
10042;DHT22;5061;49.068;12.058;2023-02-24T05:48:00;6.90;99.90
10042;DHT22;5061;49.068;12.058;2023-02-24T05:51:20;6.90;99.90
10042;DHT22;5061;49.068;12.058;2023-02-24T05:54:43;6.90;99.90
10042;DHT22;5061;49.068;12.058;2023-02-24T05:58:04;6.90;99.90
10042;DHT22;5061;49.068;12.058;2023-02-24T06:01:32;6.80;99.90
10042;DHT22;5061;49.068;12.058;2023-02-24T06:04:53;6.80;99.90
10042;DHT22;5061;49.068;12.058;2023-02-24T06:08:14;6.80;99.90
10042;DHT22;5061;49.068;12.058;2023-02-24T06:11:36;6.80;99.90
10042;DHT22;5061;49.068;12.058;2023-02-24T06:14:57;6.80;99.90
10042;DHT22;5061;49.068;12.058;2023-02-24T06:18:18;6.80;99.90
10042;DHT22;5061;49.068;12.058;2023-02-24T06:21:40;6.80;99.90
10042;DHT22;5061;49.068;12.058;2023-02-24T06:25:01;6.80;99.90
10042;DHT22;5061;49.068;12.058;2023-02-24T06:28:24;6.80;99.90
10042;DHT22;5061;49.068;12.058;2023-02-24T06:31:45;6.80;99.90
10042;DHT22;5061;49.068;12.058;2023-02-24T06:35:08;6.80;99.90
10042;DHT22;5061;49.068;12.058;2023-02-24T06:38:30;6.80;99.90
10042;DHT22;5061;49.068;12.058;2023-02-24T06:41:50;6.80;99.90
10042;DHT22;5061;49.068;12.058;2023-02-24T06:45:13;6.80;99.90
10042;DHT22;5061;49.068;12.058;2023-02-24T06:48:34;6.80;99.90
10042;DHT22;5061;49.068;12.058;2023-02-24T06:51:56;6.80;99.90
10042;DHT22;5061;49.068;12.058;2023-02-24T06:55:19;6.80;99.90
10042;DHT22;5061;49.068;12.058;2023-02-24T06:58:48;6.80;99.90
10042;DHT22;5061;49.068;12.058;2023-02-24T07:02:12;6.80;99.90
10042;DHT22;5061;49.068;12.058;2023-02-24T07:05:32;6.80;99.90
10042;DHT22;5061;49.068;12.058;2023-02-24T07:08:54;6.90;99.90
10042;DHT22;5061;49.068;12.058;2023-02-24T07:12:16;6.80;99.90
10042;DHT22;5061;49.068;12.058;2023-02-24T07:15:40;6.90;99.90
10042;DHT22;5061;49.068;12.058;2023-02-24T07:19:10;6.90;99.90
10042;DHT22;5061;49.068;12.058;2023-02-24T07:22:33;6.90;99.90
10042;DHT22;5061;49.068;12.058;2023-02-24T07:25:53;6.90;99.90
10042;DHT22;5061;49.068;12.058;2023-02-24T07:29:17;6.90;99.90
10042;DHT22;5061;49.068;12.058;2023-02-24T07:32:38;6.90;99.90
10042;DHT22;5061;49.068;12.058;2023-02-24T07:35:59;6.90;99.90
10042;DHT22;5061;49.068;12.058;2023-02-24T07:39:24;6.90;99.90
10042;DHT22;5061;49.068;12.058;2023-02-24T07:42:45;6.90;99.90
10042;DHT22;5061;49.068;12.058;2023-02-24T07:46:11;6.90;99.90
10042;DHT22;5061;49.068;12.058;2023-02-24T07:49:33;7.00;99.90
10042;DHT22;5061;49.068;12.058;2023-02-24T07:52:53;7.00;99.90
10042;DHT22;5061;49.068;12.058;2023-02-24T07:56:14;7.00;99.90
10042;DHT22;5061;49.068;12.058;2023-02-24T07:59:37;7.10;99.90
10042;DHT22;5061;49.068;12.058;2023-02-24T08:02:57;7.10;99.90
10042;DHT22;5061;49.068;12.058;2023-02-24T08:06:19;7.10;99.90
10042;DHT22;5061;49.068;12.058;2023-02-24T08:09:46;7.10;99.90
10042;DHT22;5061;49.068;12.058;2023-02-24T08:13:27;7.20;99.90
10042;DHT22;5061;49.068;12.058;2023-02-24T08:16:56;7.20;99.90
10042;DHT22;5061;49.068;12.058;2023-02-24T08:20:20;7.20;99.90
10042;DHT22;5061;49.068;12.058;2023-02-24T08:23:41;7.30;99.90
10042;DHT22;5061;49.068;12.058;2023-02-24T08:27:04;7.30;99.90
10042;DHT22;5061;49.068;12.058;2023-02-24T08:30:25;7.30;99.90
10042;DHT22;5061;49.068;12.058;2023-02-24T08:33:49;7.40;99.90
10042;DHT22;5061;49.068;12.058;2023-02-24T08:37:10;7.40;99.90
10042;DHT22;5061;49.068;12.058;2023-02-24T08:40:38;7.40;99.90
10042;DHT22;5061;49.068;12.058;2023-02-24T08:44:11;7.40;99.90
10042;DHT22;5061;49.068;12.058;2023-02-24T08:47:32;7.50;99.90
10042;DHT22;5061;49.068;12.058;2023-02-24T08:50:55;7.50;99.90
10042;DHT22;5061;49.068;12.058;2023-02-24T08:54:21;7.50;99.90
10042;DHT22;5061;49.068;12.058;2023-02-24T08:57:47;7.60;99.90
10042;DHT22;5061;49.068;12.058;2023-02-24T09:01:13;7.60;99.90
10042;DHT22;5061;49.068;12.058;2023-02-24T09:04:38;7.60;99.90
10042;DHT22;5061;49.068;12.058;2023-02-24T09:08:05;7.60;99.90
10042;DHT22;5061;49.068;12.058;2023-02-24T09:11:26;7.70;99.90
10042;DHT22;5061;49.068;12.058;2023-02-24T09:15:08;7.70;99.90
10042;DHT22;5061;49.068;12.058;2023-02-24T09:18:29;7.70;99.90
10042;DHT22;5061;49.068;12.058;2023-02-24T09:21:50;7.80;99.90
10042;DHT22;5061;49.068;12.058;2023-02-24T09:25:37;7.80;99.90
10042;DHT22;5061;49.068;12.058;2023-02-24T09:29:02;7.80;99.90
10042;DHT22;5061;49.068;12.058;2023-02-24T09:32:43;7.90;99.90
10042;DHT22;5061;49.068;12.058;2023-02-24T09:39:33;8.00;99.90
10042;DHT22;5061;49.068;12.058;2023-02-24T09:43:16;8.10;99.90
10042;DHT22;5061;49.068;12.058;2023-02-24T09:46:41;8.10;99.90
10042;DHT22;5061;49.068;12.058;2023-02-24T09:53:39;8.20;99.90
10042;DHT22;5061;49.068;12.058;2023-02-24T09:57:16;8.20;99.90
10042;DHT22;5061;49.068;12.058;2023-02-24T10:07:47;8.40;99.90
10042;DHT22;5061;49.068;12.058;2023-02-24T10:11:13;8.40;99.90
10042;DHT22;5061;49.068;12.058;2023-02-24T10:25:52;8.70;99.90
10042;DHT22;5061;49.068;12.058;2023-02-24T10:32:56;8.70;99.90
10042;DHT22;5061;49.068;12.058;2023-02-24T10:36:19;8.70;99.90
10042;DHT22;5061;49.068;12.058;2023-02-24T10:39:46;8.70;99.90
10042;DHT22;5061;49.068;12.058;2023-02-24T10:43:09;8.70;99.90
10042;DHT22;5061;49.068;12.058;2023-02-24T10:46:31;8.80;99.90
10042;DHT22;5061;49.068;12.058;2023-02-24T10:49:56;8.80;99.90
10042;DHT22;5061;49.068;12.058;2023-02-24T10:53:17;8.80;99.90
10042;DHT22;5061;49.068;12.058;2023-02-24T10:56:56;8.90;99.90
10042;DHT22;5061;49.068;12.058;2023-02-24T11:00:49;8.80;99.90
10042;DHT22;5061;49.068;12.058;2023-02-24T11:04:36;8.80;99.90
10042;DHT22;5061;49.068;12.058;2023-02-24T11:08:23;8.80;99.90
10042;DHT22;5061;49.068;12.058;2023-02-24T11:15:47;8.70;99.90
10042;DHT22;5061;49.068;12.058;2023-02-24T11:19:40;8.60;99.90
10042;DHT22;5061;49.068;12.058;2023-02-24T11:23:06;8.70;99.90
10042;DHT22;5061;49.068;12.058;2023-02-24T11:26:35;8.70;99.90
10042;DHT22;5061;49.068;12.058;2023-02-24T11:30:53;8.70;99.90
10042;DHT22;5061;49.068;12.058;2023-02-24T11:34:37;8.80;99.90
10042;DHT22;5061;49.068;12.058;2023-02-24T11:38:29;8.80;99.90
10042;DHT22;5061;49.068;12.058;2023-02-24T11:41:55;8.80;99.90
10042;DHT22;5061;49.068;12.058;2023-02-24T11:45:32;8.80;99.90
10042;DHT22;5061;49.068;12.058;2023-02-24T11:48:56;8.80;99.90
10042;DHT22;5061;49.068;12.058;2023-02-24T11:52:30;8.80;99.90
10042;DHT22;5061;49.068;12.058;2023-02-24T11:55:56;8.80;99.90
10042;DHT22;5061;49.068;12.058;2023-02-24T12:07:30;8.90;99.90
10042;DHT22;5061;49.068;12.058;2023-02-24T12:11:16;8.90;99.90
10042;DHT22;5061;49.068;12.058;2023-02-24T12:14:45;8.90;99.90
10042;DHT22;5061;49.068;12.058;2023-02-24T12:21:52;8.80;99.90
10042;DHT22;5061;49.068;12.058;2023-02-24T12:25:15;8.80;99.90
10042;DHT22;5061;49.068;12.058;2023-02-24T12:32:59;8.70;99.90
10042;DHT22;5061;49.068;12.058;2023-02-24T12:43:44;8.70;99.90
10042;DHT22;5061;49.068;12.058;2023-02-24T12:47:11;8.60;99.90
10042;DHT22;5061;49.068;12.058;2023-02-24T12:57:42;8.30;99.90
10042;DHT22;5061;49.068;12.058;2023-02-24T13:12:32;8.10;99.90
10042;DHT22;5061;49.068;12.058;2023-02-24T13:15:57;8.10;99.90
10042;DHT22;5061;49.068;12.058;2023-02-24T13:26:22;8.20;99.90
10042;DHT22;5061;49.068;12.058;2023-02-24T13:29:46;8.20;99.90
10042;DHT22;5061;49.068;12.058;2023-02-24T13:36:45;8.30;99.90
10042;DHT22;5061;49.068;12.058;2023-02-24T13:44:37;8.40;99.90
10042;DHT22;5061;49.068;12.058;2023-02-24T14:02:16;8.40;99.90
10042;DHT22;5061;49.068;12.058;2023-02-24T14:05:40;8.40;99.90
10042;DHT22;5061;49.068;12.058;2023-02-24T14:09:05;8.40;99.90
10042;DHT22;5061;49.068;12.058;2023-02-24T14:12:31;8.50;99.90
10042;DHT22;5061;49.068;12.058;2023-02-24T14:15:54;8.50;99.90
10042;DHT22;5061;49.068;12.058;2023-02-24T14:19:16;8.60;99.90
10042;DHT22;5061;49.068;12.058;2023-02-24T14:22:52;8.80;99.90
10042;DHT22;5061;49.068;12.058;2023-02-24T14:26:13;9.00;99.90
10042;DHT22;5061;49.068;12.058;2023-02-24T14:29:38;9.10;99.90
10042;DHT22;5061;49.068;12.058;2023-02-24T14:33:02;9.30;99.90
10042;DHT22;5061;49.068;12.058;2023-02-24T14:36:41;9.30;99.90
10042;DHT22;5061;49.068;12.058;2023-02-24T14:40:13;9.40;99.90
10042;DHT22;5061;49.068;12.058;2023-02-24T14:43:41;9.50;99.90
10042;DHT22;5061;49.068;12.058;2023-02-24T14:47:08;9.50;99.90
10042;DHT22;5061;49.068;12.058;2023-02-24T14:50:31;9.50;99.90
10042;DHT22;5061;49.068;12.058;2023-02-24T14:54:01;9.60;99.90
10042;DHT22;5061;49.068;12.058;2023-02-24T14:57:29;9.50;99.90
10042;DHT22;5061;49.068;12.058;2023-02-24T15:00:55;9.50;99.90
10042;DHT22;5061;49.068;12.058;2023-02-24T15:04:36;9.60;99.90
10042;DHT22;5061;49.068;12.058;2023-02-24T15:08:00;9.60;99.90
10042;DHT22;5061;49.068;12.058;2023-02-24T15:11:22;9.70;99.90
10042;DHT22;5061;49.068;12.058;2023-02-24T15:14:51;9.80;99.90
10042;DHT22;5061;49.068;12.058;2023-02-24T15:18:26;9.90;99.90
10042;DHT22;5061;49.068;12.058;2023-02-24T15:21:47;9.90;99.90
10042;DHT22;5061;49.068;12.058;2023-02-24T15:25:29;9.80;99.90
10042;DHT22;5061;49.068;12.058;2023-02-24T15:28:57;9.70;99.90
10042;DHT22;5061;49.068;12.058;2023-02-24T15:32:20;9.70;99.90
10042;DHT22;5061;49.068;12.058;2023-02-24T15:35:50;9.60;99.90
10042;DHT22;5061;49.068;12.058;2023-02-24T15:39:18;9.50;99.90
10042;DHT22;5061;49.068;12.058;2023-02-24T15:42:58;9.40;99.90
10042;DHT22;5061;49.068;12.058;2023-02-24T15:49:40;9.20;99.90
10042;DHT22;5061;49.068;12.058;2023-02-24T15:53:04;9.10;99.90
10042;DHT22;5061;49.068;12.058;2023-02-24T15:56:27;9.00;99.90
10042;DHT22;5061;49.068;12.058;2023-02-24T16:00:03;9.00;99.90
10042;DHT22;5061;49.068;12.058;2023-02-24T16:03:32;9.00;99.90
10042;DHT22;5061;49.068;12.058;2023-02-24T16:06:54;8.90;99.90
10042;DHT22;5061;49.068;12.058;2023-02-24T16:10:20;8.90;99.90
10042;DHT22;5061;49.068;12.058;2023-02-24T16:13:54;8.80;99.90
10042;DHT22;5061;49.068;12.058;2023-02-24T16:17:32;8.80;99.90
10042;DHT22;5061;49.068;12.058;2023-02-24T16:20:53;8.70;99.90
10042;DHT22;5061;49.068;12.058;2023-02-24T16:24:14;8.70;99.90
10042;DHT22;5061;49.068;12.058;2023-02-24T16:27:35;8.70;99.90
10042;DHT22;5061;49.068;12.058;2023-02-24T16:30:56;8.60;99.90
10042;DHT22;5061;49.068;12.058;2023-02-24T16:38:15;8.50;99.90
10042;DHT22;5061;49.068;12.058;2023-02-24T16:41:35;8.50;99.90
10042;DHT22;5061;49.068;12.058;2023-02-24T16:44:56;8.40;99.90
10042;DHT22;5061;49.068;12.058;2023-02-24T16:48:23;8.40;99.90
10042;DHT22;5061;49.068;12.058;2023-02-24T16:51:44;8.30;99.90
10042;DHT22;5061;49.068;12.058;2023-02-24T16:55:05;8.30;99.90
10042;DHT22;5061;49.068;12.058;2023-02-24T16:58:29;8.30;99.90
10042;DHT22;5061;49.068;12.058;2023-02-24T17:01:50;8.20;99.90
10042;DHT22;5061;49.068;12.058;2023-02-24T17:05:17;8.20;99.90
10042;DHT22;5061;49.068;12.058;2023-02-24T17:08:38;8.10;99.90
10042;DHT22;5061;49.068;12.058;2023-02-24T17:12:02;8.10;99.90
10042;DHT22;5061;49.068;12.058;2023-02-24T17:15:31;8.00;99.90
10042;DHT22;5061;49.068;12.058;2023-02-24T17:18:55;8.10;99.90
10042;DHT22;5061;49.068;12.058;2023-02-24T17:22:16;8.00;99.90
10042;DHT22;5061;49.068;12.058;2023-02-24T17:25:37;8.00;99.90
10042;DHT22;5061;49.068;12.058;2023-02-24T17:28:58;8.00;99.90
10042;DHT22;5061;49.068;12.058;2023-02-24T17:32:19;8.00;99.90
10042;DHT22;5061;49.068;12.058;2023-02-24T17:35:41;7.90;99.90
10042;DHT22;5061;49.068;12.058;2023-02-24T17:39:02;7.90;99.90
10042;DHT22;5061;49.068;12.058;2023-02-24T17:42:22;7.90;99.90
10042;DHT22;5061;49.068;12.058;2023-02-24T17:45:44;7.80;99.90
10042;DHT22;5061;49.068;12.058;2023-02-24T17:49:05;7.80;99.90
10042;DHT22;5061;49.068;12.058;2023-02-24T17:52:26;7.80;99.90
10042;DHT22;5061;49.068;12.058;2023-02-24T17:55:47;7.70;99.90
10042;DHT22;5061;49.068;12.058;2023-02-24T17:59:07;7.70;99.90
10042;DHT22;5061;49.068;12.058;2023-02-24T18:02:28;7.60;99.90
10042;DHT22;5061;49.068;12.058;2023-02-24T18:06:03;7.60;99.90
10042;DHT22;5061;49.068;12.058;2023-02-24T18:09:24;7.50;99.90
10042;DHT22;5061;49.068;12.058;2023-02-24T18:12:46;7.50;99.90
10042;DHT22;5061;49.068;12.058;2023-02-24T18:16:12;7.40;99.90
10042;DHT22;5061;49.068;12.058;2023-02-24T18:19:33;7.40;99.90
10042;DHT22;5061;49.068;12.058;2023-02-24T18:22:54;7.40;99.90
10042;DHT22;5061;49.068;12.058;2023-02-24T18:26:15;7.40;99.90
10042;DHT22;5061;49.068;12.058;2023-02-24T18:29:35;7.30;99.90
10042;DHT22;5061;49.068;12.058;2023-02-24T18:32:56;7.30;99.90
10042;DHT22;5061;49.068;12.058;2023-02-24T18:36:17;7.30;99.90
10042;DHT22;5061;49.068;12.058;2023-02-24T18:39:38;7.30;99.90
10042;DHT22;5061;49.068;12.058;2023-02-24T18:42:58;7.30;99.90
10042;DHT22;5061;49.068;12.058;2023-02-24T18:46:24;7.20;99.90
10042;DHT22;5061;49.068;12.058;2023-02-24T18:49:44;7.20;99.90
10042;DHT22;5061;49.068;12.058;2023-02-24T18:53:05;7.20;99.90
10042;DHT22;5061;49.068;12.058;2023-02-24T18:56:27;7.20;99.90
10042;DHT22;5061;49.068;12.058;2023-02-24T18:59:48;7.20;99.90
10042;DHT22;5061;49.068;12.058;2023-02-24T19:03:13;7.10;99.90
10042;DHT22;5061;49.068;12.058;2023-02-24T19:06:34;7.10;99.90
10042;DHT22;5061;49.068;12.058;2023-02-24T19:09:55;7.00;99.90
10042;DHT22;5061;49.068;12.058;2023-02-24T19:13:16;7.00;99.90
10042;DHT22;5061;49.068;12.058;2023-02-24T19:16:36;7.00;99.90
10042;DHT22;5061;49.068;12.058;2023-02-24T19:19:57;7.00;99.90
10042;DHT22;5061;49.068;12.058;2023-02-24T19:23:17;7.00;99.90
10042;DHT22;5061;49.068;12.058;2023-02-24T19:26:38;7.00;99.90
10042;DHT22;5061;49.068;12.058;2023-02-24T19:29:59;7.00;99.90
10042;DHT22;5061;49.068;12.058;2023-02-24T19:33:20;7.00;99.90
10042;DHT22;5061;49.068;12.058;2023-02-24T19:36:41;7.00;99.90
10042;DHT22;5061;49.068;12.058;2023-02-24T19:40:02;7.00;99.90
10042;DHT22;5061;49.068;12.058;2023-02-24T19:43:23;7.00;99.90
10042;DHT22;5061;49.068;12.058;2023-02-24T19:46:43;6.90;99.90
10042;DHT22;5061;49.068;12.058;2023-02-24T19:50:04;6.90;99.90
10042;DHT22;5061;49.068;12.058;2023-02-24T19:53:25;6.80;99.90
10042;DHT22;5061;49.068;12.058;2023-02-24T19:56:45;6.80;99.90
10042;DHT22;5061;49.068;12.058;2023-02-24T20:00:07;6.70;99.90
10042;DHT22;5061;49.068;12.058;2023-02-24T20:03:30;6.60;99.90
10042;DHT22;5061;49.068;12.058;2023-02-24T20:06:51;6.60;99.90
10042;DHT22;5061;49.068;12.058;2023-02-24T20:10:14;6.50;99.90
10042;DHT22;5061;49.068;12.058;2023-02-24T20:13:35;6.50;99.90
10042;DHT22;5061;49.068;12.058;2023-02-24T20:16:55;6.40;99.90
10042;DHT22;5061;49.068;12.058;2023-02-24T20:20:16;6.50;99.90
10042;DHT22;5061;49.068;12.058;2023-02-24T20:23:38;6.40;99.90
10042;DHT22;5061;49.068;12.058;2023-02-24T20:26:58;6.40;99.90
10042;DHT22;5061;49.068;12.058;2023-02-24T20:30:23;6.40;99.90
10042;DHT22;5061;49.068;12.058;2023-02-24T20:33:45;6.40;99.90
10042;DHT22;5061;49.068;12.058;2023-02-24T20:37:06;6.30;99.90
10042;DHT22;5061;49.068;12.058;2023-02-24T20:40:26;6.30;99.90
10042;DHT22;5061;49.068;12.058;2023-02-24T20:43:48;6.30;99.90
10042;DHT22;5061;49.068;12.058;2023-02-24T20:47:08;6.20;99.90
10042;DHT22;5061;49.068;12.058;2023-02-24T20:50:29;6.20;99.90
10042;DHT22;5061;49.068;12.058;2023-02-24T20:53:50;6.10;99.90
10042;DHT22;5061;49.068;12.058;2023-02-24T20:57:11;6.10;99.90
10042;DHT22;5061;49.068;12.058;2023-02-24T21:00:32;6.00;99.90
10042;DHT22;5061;49.068;12.058;2023-02-24T21:03:53;6.00;99.90
10042;DHT22;5061;49.068;12.058;2023-02-24T21:07:14;5.90;99.90
10042;DHT22;5061;49.068;12.058;2023-02-24T21:10:34;5.90;99.90
10042;DHT22;5061;49.068;12.058;2023-02-24T21:13:56;5.80;99.90
10042;DHT22;5061;49.068;12.058;2023-02-24T21:17:17;5.80;99.90
10042;DHT22;5061;49.068;12.058;2023-02-24T21:20:38;5.70;99.90
10042;DHT22;5061;49.068;12.058;2023-02-24T21:23:59;5.70;99.90
10042;DHT22;5061;49.068;12.058;2023-02-24T21:27:19;5.70;99.90
10042;DHT22;5061;49.068;12.058;2023-02-24T21:30:41;5.70;99.90
10042;DHT22;5061;49.068;12.058;2023-02-24T21:34:01;5.60;99.90
10042;DHT22;5061;49.068;12.058;2023-02-24T21:37:23;5.60;99.90
10042;DHT22;5061;49.068;12.058;2023-02-24T21:40:43;5.50;99.90
10042;DHT22;5061;49.068;12.058;2023-02-24T21:44:04;5.50;99.90
10042;DHT22;5061;49.068;12.058;2023-02-24T21:47:25;5.40;99.90
10042;DHT22;5061;49.068;12.058;2023-02-24T21:50:55;5.40;99.90
10042;DHT22;5061;49.068;12.058;2023-02-24T21:54:17;5.30;99.90
10042;DHT22;5061;49.068;12.058;2023-02-24T21:57:39;5.20;99.90
10042;DHT22;5061;49.068;12.058;2023-02-24T22:01:00;5.10;99.90
10042;DHT22;5061;49.068;12.058;2023-02-24T22:04:21;5.10;99.90
10042;DHT22;5061;49.068;12.058;2023-02-24T22:07:43;5.00;99.90
10042;DHT22;5061;49.068;12.058;2023-02-24T22:11:04;4.90;99.90
10042;DHT22;5061;49.068;12.058;2023-02-24T22:14:28;4.90;99.90
10042;DHT22;5061;49.068;12.058;2023-02-24T22:17:48;4.80;99.90
10042;DHT22;5061;49.068;12.058;2023-02-24T22:21:12;4.70;99.90
10042;DHT22;5061;49.068;12.058;2023-02-24T22:24:33;4.60;99.90
10042;DHT22;5061;49.068;12.058;2023-02-24T22:27:53;4.50;99.90
10042;DHT22;5061;49.068;12.058;2023-02-24T22:31:16;4.40;99.90
10042;DHT22;5061;49.068;12.058;2023-02-24T22:34:37;4.30;99.90
10042;DHT22;5061;49.068;12.058;2023-02-24T22:37:58;4.30;99.90
10042;DHT22;5061;49.068;12.058;2023-02-24T22:41:21;4.20;99.90
10042;DHT22;5061;49.068;12.058;2023-02-24T22:44:42;4.20;99.90
10042;DHT22;5061;49.068;12.058;2023-02-24T22:48:03;4.10;99.90
10042;DHT22;5061;49.068;12.058;2023-02-24T22:51:24;4.10;99.90
10042;DHT22;5061;49.068;12.058;2023-02-24T22:54:45;4.00;99.90
10042;DHT22;5061;49.068;12.058;2023-02-24T22:58:06;4.00;99.90
10042;DHT22;5061;49.068;12.058;2023-02-24T23:01:35;3.90;99.90
10042;DHT22;5061;49.068;12.058;2023-02-24T23:04:55;3.80;99.90
10042;DHT22;5061;49.068;12.058;2023-02-24T23:08:16;3.80;99.90
10042;DHT22;5061;49.068;12.058;2023-02-24T23:11:39;3.80;99.90
10042;DHT22;5061;49.068;12.058;2023-02-24T23:15:03;3.70;99.90
10042;DHT22;5061;49.068;12.058;2023-02-24T23:18:24;3.70;99.90
10042;DHT22;5061;49.068;12.058;2023-02-24T23:21:47;3.70;99.90
10042;DHT22;5061;49.068;12.058;2023-02-24T23:25:10;3.60;99.90
10042;DHT22;5061;49.068;12.058;2023-02-24T23:28:31;3.60;99.90
10042;DHT22;5061;49.068;12.058;2023-02-24T23:31:51;3.60;99.90
10042;DHT22;5061;49.068;12.058;2023-02-24T23:35:13;3.60;99.90
10042;DHT22;5061;49.068;12.058;2023-02-24T23:38:34;3.50;99.90
10042;DHT22;5061;49.068;12.058;2023-02-24T23:41:55;3.50;99.90
10042;DHT22;5061;49.068;12.058;2023-02-24T23:45:16;3.50;99.90
10042;DHT22;5061;49.068;12.058;2023-02-24T23:48:37;3.50;99.90
10042;DHT22;5061;49.068;12.058;2023-02-24T23:51:58;3.50;99.90
10042;DHT22;5061;49.068;12.058;2023-02-24T23:55:18;3.40;99.90
10042;DHT22;5061;49.068;12.058;2023-02-24T23:58:39;3.40;99.90
